Time;durP1;ratioP1;P1;durP2;ratioP2;P2;SDS_P1;SDS_P2;PMS_P1;PMS_P2;Temp;Humidity;BMP_temperature;BMP_pressure;BME280_temperature;BME280_humidity;BME280_pressure;Samples;Min_cycle;Max_cycle;Signal;HPM_P1;HPM_P2
2023/11/02 00:00:37;;;;;;;7.68;1.83;;;;;;;11.15;100.00;98818.88;4969342;28;20030;-77
2023/11/02 00:03:06;;;;;;;5.80;1.40;;;;;;;11.09;100.00;98803.69;4986220;28;20045;-77
2023/11/02 00:06:10;;;;;;;7.30;1.83;;;;;;;11.17;100.00;98798.91;4971474;28;20031;-77
2023/11/02 00:08:36;;;;;;;7.55;1.60;;;;;;;11.20;100.00;98781.66;4936423;28;20450;-77
2023/11/02 00:11:03;;;;;;;4.25;1.77;;;;;;;11.22;100.00;98754.72;4974618;28;20130;-76
2023/11/02 00:13:29;;;;;;;6.18;1.42;;;;;;;11.05;100.00;98749.06;4970272;28;20035;-77
2023/11/02 00:15:55;;;;;;;;;;;;;;;11.16;100.00;98762.53;4970919;28;20539;-77
2023/11/02 00:18:22;;;;;;;6.07;1.55;;;;;;;11.10;100.00;98755.41;4970113;28;19969;-77
2023/11/02 00:20:49;;;;;;;2.53;1.50;;;;;;;11.16;100.00;98748.38;4969861;28;20022;-77
2023/11/02 00:23:34;;;;;;;6.50;2.10;;;;;;;11.19;100.00;98758.63;4965512;28;20038;-76
2023/11/02 00:26:00;;;;;;;13.50;1.65;;;;;;;11.15;100.00;98765.44;4952095;28;20518;-77
2023/11/02 00:28:25;;;;;;;5.33;1.67;;;;;;;10.89;100.00;98737.84;4953797;28;20054;-77
2023/11/02 00:30:51;;;;;;;4.78;1.85;;;;;;;10.97;100.00;98764.28;4971030;28;20062;-77
2023/11/02 00:33:18;;;;;;;6.10;1.63;;;;;;;11.03;100.00;98772.47;4967224;28;20031;-77
2023/11/02 00:35:46;;;;;;;3.35;1.30;;;;;;;11.12;100.00;98769.38;4968378;28;20377;-77
2023/11/02 00:38:16;;;;;;;7.15;1.65;;;;;;;10.98;100.00;98749.94;4983546;28;20034;-77
2023/11/02 00:40:42;;;;;;;6.75;1.55;;;;;;;10.97;100.00;98750.94;4958876;28;20034;-77
2023/11/02 00:43:08;;;;;;;5.32;1.55;;;;;;;10.98;100.00;98776.63;4965157;28;20407;-77
2023/11/02 00:45:38;;;;;;;7.35;1.90;;;;;;;10.96;100.00;98757.34;4969792;28;20133;-77
2023/11/02 00:48:10;;;;;;;4.85;1.65;;;;;;;10.97;100.00;98766.97;4969175;28;20114;-77
2023/11/02 00:51:19;;;;;;;6.75;1.77;;;;;;;10.94;100.00;98774.59;4969424;28;20062;-76
2023/11/02 00:53:50;;;;;;;6.13;1.83;;;;;;;10.90;100.00;98779.53;4969563;28;20031;-77
2023/11/02 00:56:17;;;;;;;7.18;1.92;;;;;;;10.88;100.00;98792.28;4953138;28;20068;-77
2023/11/02 00:58:46;;;;;;;4.15;1.42;;;;;;;10.84;100.00;98807.09;4985756;28;20030;-77
2023/11/02 01:01:13;;;;;;;4.55;1.70;;;;;;;10.80;100.00;98799.72;4969337;28;20059;-77
2023/11/02 01:03:38;;;;;;;12.00;2.35;;;;;;;10.62;100.00;98808.38;4970564;28;20058;-76
2023/11/02 01:06:19;;;;;;;5.40;1.55;;;;;;;10.63;100.00;98832.22;4971322;28;20506;-77
2023/11/02 01:08:51;;;;;;;6.95;2.00;;;;;;;10.52;100.00;98831.00;4953247;28;20043;-76
2023/11/02 01:11:17;;;;;;;7.03;2.30;;;;;;;10.51;100.00;98837.38;4969874;28;20039;-77
2023/11/02 01:13:42;;;;;;;4.83;1.60;;;;;;;10.48;100.00;98839.63;4953227;28;20026;-77
2023/11/02 01:16:09;;;;;;;5.43;1.50;;;;;;;10.50;100.00;98849.06;4985217;28;20786;-77
2023/11/02 01:18:36;;;;;;;5.25;1.63;;;;;;;10.54;100.00;98858.28;4968773;28;20269;-76
2023/11/02 01:21:06;;;;;;;2.75;1.10;;;;;;;10.56;100.00;98842.91;4969009;28;20018;-76
2023/11/02 01:23:32;;;;;;;6.32;1.40;;;;;;;10.33;100.00;98829.19;4985418;28;20151;-76
2023/11/02 01:25:59;;;;;;;7.03;1.95;;;;;;;10.40;100.00;98859.34;4968868;28;20106;-77
2023/11/02 01:28:49;;;;;;;5.07;1.85;;;;;;;10.43;100.00;98864.25;4984685;28;20039;-76
2023/11/02 01:31:17;;;;;;;8.77;2.65;;;;;;;10.32;100.00;98852.38;4963737;28;20257;-76
2023/11/02 01:34:00;;;;;;;9.75;2.55;;;;;;;10.28;100.00;98856.47;4968983;28;20025;-77
2023/11/02 01:36:29;;;;;;;4.13;1.60;;;;;;;10.20;100.00;98863.84;4966390;28;20091;-77
2023/11/02 01:39:15;;;;;;;7.88;1.70;;;;;;;10.18;100.00;98861.38;4944938;28;20066;-77
2023/11/02 01:42:11;;;;;;;3.78;1.70;;;;;;;10.19;100.00;98863.03;4952081;28;20049;-76
2023/11/02 01:44:40;;;;;;;;;;;;;;;10.11;100.00;98849.88;4952677;28;20180;-77
2023/11/02 01:47:22;;;;;;;7.32;1.67;;;;;;;10.06;100.00;98858.50;4983159;28;19914;-77
2023/11/02 01:50:01;;;;;;;24.77;4.13;;;;;;;10.07;100.00;98856.69;4965918;28;20042;-77
2023/11/02 01:52:42;;;;;;;5.45;1.77;;;;;;;10.02;100.00;98846.63;4968416;28;20399;-77
2023/11/02 01:55:31;;;;;;;6.60;1.60;;;;;;;10.04;100.00;98859.72;4952369;28;20046;-77
2023/11/02 01:58:11;;;;;;;8.32;2.35;;;;;;;9.97;100.00;98854.38;5011197;28;20035;-77
2023/11/02 02:00:57;;;;;;;7.50;1.90;;;;;;;9.94;100.00;98854.81;4968079;28;20111;-77
2023/11/02 02:03:37;;;;;;;6.57;1.88;;;;;;;9.86;100.00;98858.50;4984436;28;20450;-77
2023/11/02 02:06:10;;;;;;;3.03;1.65;;;;;;;9.80;100.00;98853.16;4964792;28;20109;-77
2023/11/02 02:08:52;;;;;;;4.20;1.48;;;;;;;9.84;100.00;98859.72;4967580;28;20046;-77
2023/11/02 02:11:33;;;;;;;6.82;1.75;;;;;;;9.79;100.00;98859.53;4963083;28;20225;-77
2023/11/02 02:14:10;;;;;;;5.20;1.65;;;;;;;9.77;100.00;98848.25;4944517;28;20070;-77
2023/11/02 02:16:54;;;;;;;6.35;1.60;;;;;;;9.79;100.00;98864.84;4966200;28;20054;-76
2023/11/02 02:19:47;;;;;;;4.50;1.40;;;;;;;9.73;100.00;98843.31;4967399;28;20506;-77
2023/11/02 02:22:21;;;;;;;7.15;1.67;;;;;;;9.80;100.00;98840.66;4967830;28;20046;-76
2023/11/02 02:24:57;;;;;;;6.35;1.63;;;;;;;9.78;100.00;98833.88;4967630;28;20031;-76
2023/11/02 02:27:49;;;;;;;;;;;;;;;9.83;100.00;98842.09;4969322;28;20123;-77
2023/11/02 02:30:53;;;;;;;9.75;2.17;;;;;;;9.82;100.00;98843.13;4974455;28;19924;-76
2023/11/02 02:33:48;;;;;;;5.88;1.92;;;;;;;9.77;100.00;98821.59;4956769;28;20053;-77
2023/11/02 02:36:21;;;;;;;4.63;2.00;;;;;;;9.71;100.00;98829.34;4962121;28;20129;-77
2023/11/02 02:38:52;;;;;;;11.05;1.75;;;;;;;9.56;100.00;98820.75;4964332;28;20078;-77
2023/11/02 02:41:20;;;;;;;5.65;2.20;;;;;;;9.71;100.00;98837.34;4961875;28;20062;-76
2023/11/02 02:43:50;;;;;;;9.25;1.58;;;;;;;9.58;100.00;98807.22;4966997;28;20043;-76
2023/11/02 02:46:21;;;;;;;2.72;1.25;;;;;;;9.55;100.00;98812.94;4967172;28;20142;-77
2023/11/02 02:48:47;;;;;;;7.93;1.58;;;;;;;9.48;100.00;98812.94;4983526;28;20039;-77
2023/11/02 02:51:15;;;;;;;3.80;1.60;;;;;;;9.47;100.00;98821.97;4975409;28;20033;-77
2023/11/02 02:53:42;;;;;;;9.20;2.58;;;;;;;9.50;100.00;98821.53;4983684;28;20039;-77
2023/11/02 02:56:09;;;;;;;7.00;2.17;;;;;;;9.47;100.00;98828.09;4951149;28;20545;-76
2023/11/02 02:58:50;;;;;;;8.32;2.08;;;;;;;9.48;100.00;98802.28;4969663;28;20039;-77
2023/11/02 03:01:19;;;;;;;3.20;1.40;;;;;;;9.51;100.00;98801.91;4970294;28;20027;-77
2023/11/02 03:03:46;;;;;;;6.28;1.90;;;;;;;9.41;100.00;98812.09;4970315;28;20043;-76
2023/11/02 03:06:11;;;;;;;5.13;1.85;;;;;;;9.35;100.00;98800.44;4971988;28;20061;-77
2023/11/02 03:08:41;;;;;;;5.18;1.20;;;;;;;9.37;100.00;98816.22;4969759;28;20066;-76
2023/11/02 03:11:10;;;;;;;2.78;1.27;;;;;;;9.35;100.00;98804.94;4970154;28;20039;-76
2023/11/02 03:13:39;;;;;;;12.80;2.50;;;;;;;9.28;100.00;98795.09;4986589;28;20046;-76
2023/11/02 03:16:08;;;;;;;3.38;1.30;;;;;;;9.21;100.00;98793.44;4975638;28;20387;-76
2023/11/02 03:18:36;;;;;;;3.78;1.58;;;;;;;9.18;100.00;98805.31;4969950;28;20043;-77
2023/11/02 03:21:01;;;;;;;7.10;1.83;;;;;;;9.22;100.00;98809.19;4969932;28;20072;-77
2023/11/02 03:23:37;;;;;;;3.75;1.77;;;;;;;9.10;100.00;98800.16;4970428;28;20042;-76
2023/11/02 03:26:07;;;;;;;8.67;2.10;;;;;;;9.07;100.00;98803.22;4986584;28;20518;-77
2023/11/02 03:28:35;;;;;;;5.85;1.83;;;;;;;9.07;100.00;98792.56;4966801;28;20039;-76
2023/11/02 03:31:23;;;;;;;7.70;1.80;;;;;;;9.15;100.00;98803.03;4970782;28;20042;-77
2023/11/02 03:34:07;;;;;;;5.03;1.80;;;;;;;9.07;100.00;98781.94;4970128;28;20068;-76
2023/11/02 03:36:51;;;;;;;4.65;1.70;;;;;;;9.04;100.00;98790.31;4986078;28;20514;-76
2023/11/02 03:39:31;;;;;;;4.43;1.50;;;;;;;9.08;100.00;98795.06;4969793;28;20042;-76
2023/11/02 03:42:22;;;;;;;4.68;1.67;;;;;;;9.05;100.00;98786.63;4986072;28;20065;-77
2023/11/02 03:44:55;;;;;;;6.28;1.50;;;;;;;9.13;100.00;98778.47;4969544;28;20085;-76
2023/11/02 03:47:24;;;;;;;4.28;1.60;;;;;;;9.03;100.00;98773.50;4969891;28;20035;-77
2023/11/02 03:50:19;;;;;;;6.32;1.40;;;;;;;9.06;100.00;98764.28;4969624;28;20065;-76
2023/11/02 03:52:54;;;;;;;6.15;1.85;;;;;;;9.03;100.00;98752.22;4984373;28;20035;-77
2023/11/02 03:55:44;;;;;;;4.13;1.30;;;;;;;9.02;100.00;98728.47;4967554;28;20035;-76
2023/11/02 03:58:23;;;;;;;3.10;1.58;;;;;;;9.05;100.00;98730.72;4978990;28;20490;-77
2023/11/02 04:01:02;;;;;;;6.45;1.50;;;;;;;8.94;100.00;98710.03;4970541;28;20027;-76
2023/11/02 04:03:30;;;;;;;4.35;1.42;;;;;;;8.96;100.00;98714.13;4969810;28;20031;-76
2023/11/02 04:06:00;;;;;;;3.85;1.30;;;;;;;8.91;100.00;98716.56;4970651;28;20026;-76
2023/11/02 04:08:31;;;;;;;5.03;1.73;;;;;;;8.91;100.00;98721.06;4968489;28;20088;-77
2023/11/02 04:11:08;;;;;;;4.53;1.70;;;;;;;9.01;100.00;98710.84;4968807;28;20038;-76
2023/11/02 04:13:45;;;;;;;7.85;1.92;;;;;;;8.93;100.00;98693.25;4969684;28;20050;-76
2023/11/02 04:16:10;;;;;;;6.28;1.65;;;;;;;8.91;100.00;98681.16;4970928;28;20350;-77
2023/11/02 04:18:38;;;;;;;21.17;2.33;;;;;;;8.73;100.00;98665.75;4969969;28;20027;-76
2023/11/02 04:21:04;;;;;;;7.38;2.30;;;;;;;8.79;100.00;98675.59;4970169;28;20031;-76
2023/11/02 04:23:32;;;;;;;7.43;2.63;;;;;;;8.93;100.00;98681.78;4953321;28;20088;-77
2023/11/02 04:25:59;;;;;;;7.35;1.40;;;;;;;8.88;100.00;98664.56;4968845;28;20168;-76
2023/11/02 04:28:24;;;;;;;;;;;;;;;8.92;100.00;98662.34;4969812;28;20035;-76
2023/11/02 04:30:49;;;;;;;5.15;2.05;;;;;;;8.94;100.00;98651.47;4968941;28;20271;-76
2023/11/02 04:33:15;;;;;;;14.53;2.17;;;;;;;8.88;100.00;98637.97;4969415;28;20078;-76
2023/11/02 04:35:41;;;;;;;2.33;1.23;;;;;;;8.78;100.00;98632.22;4969132;28;20030;-77
2023/11/02 04:38:08;;;;;;;4.05;1.50;;;;;;;8.90;100.00;98639.59;4984955;28;20100;-76
2023/11/02 04:40:35;;;;;;;8.27;2.13;;;;;;;8.78;100.00;98610.94;4946718;28;20047;-76
2023/11/02 04:43:01;;;;;;;6.60;1.88;;;;;;;8.75;100.00;98616.66;4967270;28;20456;-76
2023/11/02 04:45:31;;;;;;;;;;;;;;;8.81;100.00;98625.69;4969565;28;20041;-76
2023/11/02 04:47:57;;;;;;;7.25;1.50;;;;;;;8.82;100.00;98614.81;4952266;28;20001;-77
2023/11/02 04:50:23;;;;;;;6.22;1.83;;;;;;;8.72;100.00;98601.09;4968725;28;20068;-77
2023/11/02 04:52:49;;;;;;;3.28;1.50;;;;;;;8.80;100.00;98616.03;4968708;28;20038;-76
2023/11/02 04:55:15;;;;;;;7.93;1.95;;;;;;;8.80;100.00;98600.06;4970337;28;20483;-77
2023/11/02 04:57:40;;;;;;;3.72;1.13;;;;;;;8.59;100.00;98585.09;4969805;28;20047;-77
2023/11/02 05:00:07;;;;;;;4.03;1.60;;;;;;;8.60;100.00;98571.63;4977539;28;20062;-76
2023/11/02 05:02:32;;;;;;;7.10;1.95;;;;;;;8.54;100.00;98588.38;4968789;28;20098;-76
2023/11/02 05:04:59;;;;;;;5.43;1.80;;;;;;;8.73;100.00;98609.88;4968350;28;20095;-76
2023/11/02 05:07:24;;;;;;;5.80;1.52;;;;;;;8.55;100.00;98606.00;4968418;28;20038;-76
2023/11/02 05:09:50;;;;;;;7.50;1.83;;;;;;;8.54;100.00;98598.19;4969479;28;20027;-76
2023/11/02 05:12:15;;;;;;;13.23;1.77;;;;;;;8.60;100.00;98592.09;4969800;28;20289;-76
2023/11/02 05:14:41;;;;;;;8.80;1.93;;;;;;;8.53;100.00;98591.25;4969802;28;20107;-77
2023/11/02 05:17:06;;;;;;;4.70;2.07;;;;;;;8.56;100.00;98601.47;4984211;28;20465;-76
2023/11/02 05:19:31;;;;;;;3.00;1.60;;;;;;;8.64;100.00;98593.31;4968441;28;20029;-76
2023/11/02 05:21:57;;;;;;;6.10;1.87;;;;;;;8.60;100.00;98568.16;4968198;28;20601;-77
2023/11/02 05:24:22;;;;;;;4.33;1.67;;;;;;;8.44;100.00;98562.19;4969810;28;20106;-76
2023/11/02 05:26:48;;;;;;;4.73;1.77;;;;;;;8.49;100.00;98568.75;4984411;28;20034;-77
2023/11/02 05:29:13;;;;;;;3.30;1.67;;;;;;;8.53;100.00;98569.97;4965188;28;20031;-77
2023/11/02 05:31:38;;;;;;;5.07;2.17;;;;;;;8.52;100.00;98557.69;4966854;28;20050;-76
2023/11/02 05:34:04;;;;;;;3.97;1.87;;;;;;;8.47;100.00;98552.97;4952603;28;20077;-76
2023/11/02 05:36:29;;;;;;;5.93;1.93;;;;;;;8.48;100.00;98545.84;4967989;28;20151;-77
2023/11/02 05:38:54;;;;;;;3.00;1.73;;;;;;;8.51;100.00;98545.44;4984369;28;20038;-76
2023/11/02 05:41:20;;;;;;;3.53;1.40;;;;;;;8.56;100.00;98542.97;4969600;28;20483;-76
2023/11/02 05:43:45;;;;;;;6.88;1.80;;;;;;;8.49;100.00;98523.53;4969278;28;20411;-76
2023/11/02 05:46:11;;;;;;;3.87;1.50;;;;;;;8.59;100.00;98534.56;4984419;28;20494;-76
2023/11/02 05:48:36;;;;;;;5.05;1.60;;;;;;;8.57;100.00;98512.69;4980801;28;20038;-76
2023/11/02 05:51:02;;;;;;;13.68;1.73;;;;;;;8.55;100.00;98488.16;4967459;28;20039;-77
2023/11/02 05:53:28;;;;;;;4.88;1.45;;;;;;;8.45;100.00;98483.22;4951097;28;20023;-76
2023/11/02 05:55:53;;;;;;;4.65;1.65;;;;;;;8.50;100.00;98483.44;4967200;28;20038;-77
2023/11/02 05:58:19;;;;;;;4.78;1.30;;;;;;;8.61;100.00;98477.50;4951633;28;20038;-76
2023/11/02 06:00:44;;;;;;;4.38;1.60;;;;;;;8.53;100.00;98463.59;4967227;28;20391;-76
2023/11/02 06:03:10;;;;;;;5.50;1.27;;;;;;;8.50;100.00;98466.66;4970445;28;20518;-77
2023/11/02 06:05:35;;;;;;;8.27;2.23;;;;;;;8.52;100.00;98459.28;5007754;28;20085;-76
2023/11/02 06:08:00;;;;;;;2.10;1.23;;;;;;;8.50;100.00;98448.88;4970190;28;20049;-77
2023/11/02 06:10:26;;;;;;;8.10;1.50;;;;;;;8.44;100.00;98434.53;4969360;28;20035;-76
2023/11/02 06:12:51;;;;;;;4.47;1.50;;;;;;;8.55;100.00;98424.31;4968136;28;20046;-76
2023/11/02 06:15:17;;;;;;;3.27;1.70;;;;;;;8.47;100.00;98424.53;4952144;28;20038;-76
2023/11/02 06:17:43;;;;;;;3.55;1.38;;;;;;;8.34;100.00;98434.09;4981186;28;20491;-77
2023/11/02 06:20:09;;;;;;;5.80;1.65;;;;;;;8.38;100.00;98439.81;4964741;28;20035;-76
2023/11/02 06:22:34;;;;;;;6.18;1.65;;;;;;;8.27;100.00;98433.28;5016524;28;20035;-77
2023/11/02 06:24:59;;;;;;;6.10;1.70;;;;;;;8.37;100.00;98446.19;4967903;28;20035;-77
2023/11/02 06:27:25;;;;;;;6.90;2.13;;;;;;;8.37;100.00;98440.84;4968788;28;20043;-76
2023/11/02 06:29:51;;;;;;;5.60;1.87;;;;;;;8.30;100.00;98427.56;4967779;28;20129;-76
2023/11/02 06:32:17;;;;;;;3.45;1.73;;;;;;;8.35;100.00;98440.25;4953562;28;20729;-76
2023/11/02 06:34:42;;;;;;;5.17;1.40;;;;;;;8.35;100.00;98437.59;4969092;28;20027;-76
2023/11/02 06:37:11;;;;;;;7.90;1.67;;;;;;;8.27;100.00;98432.47;4985061;28;20075;-76
2023/11/02 06:39:37;;;;;;;7.03;2.10;;;;;;;8.31;100.00;98423.91;4973126;28;20027;-77
2023/11/02 06:42:04;;;;;;;6.07;2.25;;;;;;;8.31;100.00;98418.59;4969496;28;20035;-76
2023/11/02 06:44:29;;;;;;;5.00;1.60;;;;;;;8.30;100.00;98416.94;4987847;28;20081;-76
2023/11/02 06:46:55;;;;;;;10.43;1.60;;;;;;;8.33;100.00;98408.53;4958498;28;20059;-77
2023/11/02 06:49:21;;;;;;;3.90;1.40;;;;;;;8.43;100.00;98394.88;4971054;28;20038;-77
2023/11/02 06:51:46;;;;;;;4.53;1.40;;;;;;;8.51;100.00;98396.50;4952300;28;20637;-76
2023/11/02 06:54:12;;;;;;;5.17;1.20;;;;;;;8.42;100.00;98372.75;4968664;28;20030;-76
2023/11/02 06:56:37;;;;;;;4.97;1.70;;;;;;;8.54;100.00;98385.44;4970853;28;20324;-76
2023/11/02 06:59:02;;;;;;;6.47;1.63;;;;;;;8.53;100.00;98367.88;4970755;28;20041;-76
2023/11/02 07:01:28;;;;;;;4.03;1.30;;;;;;;8.57;100.00;98375.22;4966919;28;20069;-77
2023/11/02 07:03:53;;;;;;;5.27;1.53;;;;;;;8.66;100.00;98365.16;4980446;28;20382;-76
2023/11/02 07:06:19;;;;;;;6.33;1.83;;;;;;;8.55;100.00;98350.66;4970563;28;20103;-77
2023/11/02 07:08:44;;;;;;;4.75;1.35;;;;;;;8.62;100.00;98345.34;4967600;28;20295;-76
2023/11/02 07:11:10;;;;;;;5.60;1.30;;;;;;;8.76;100.00;98341.63;4971488;28;20027;-77
2023/11/02 07:13:35;;;;;;;2.20;0.82;;;;;;;8.72;100.00;98324.44;4975764;28;20043;-77
2023/11/02 07:16:01;;;;;;;3.70;1.63;;;;;;;8.71;100.00;98314.81;4970214;28;20038;-77
2023/11/02 07:18:26;;;;;;;8.57;1.38;;;;;;;8.71;100.00;98312.16;4969896;28;20034;-77
2023/11/02 07:20:51;;;;;;;4.23;1.53;;;;;;;8.75;100.00;98308.03;4971477;28;20039;-77
2023/11/02 07:23:17;;;;;;;2.07;1.10;;;;;;;8.73;100.00;98299.44;4954369;28;20392;-77
2023/11/02 07:25:42;;;;;;;6.68;1.73;;;;;;;8.63;100.00;98278.63;4971611;28;20068;-76
2023/11/02 07:28:08;;;;;;;4.13;1.40;;;;;;;8.66;100.00;98272.06;5012561;28;20060;-76
2023/11/02 07:30:34;;;;;;;4.75;1.67;;;;;;;8.73;100.00;98270.19;4970603;28;20035;-77
2023/11/02 07:32:59;;;;;;;2.83;1.15;;;;;;;8.69;100.00;98242.41;4970606;28;20041;-77
2023/11/02 07:35:25;;;;;;;5.07;1.77;;;;;;;8.87;100.00;98247.84;4970835;28;20019;-76
2023/11/02 07:37:51;;;;;;;3.60;1.10;;;;;;;8.68;100.00;98206.16;4971534;28;20026;-77
2023/11/02 07:40:20;;;;;;;4.43;1.15;;;;;;;8.64;100.00;98189.03;4975121;28;20023;-77
2023/11/02 07:42:45;;;;;;;2.28;0.90;;;;;;;8.60;100.00;98179.81;4983378;28;20034;-76
2023/11/02 07:45:11;;;;;;;7.75;2.10;;;;;;;8.71;100.00;98189.81;4970241;28;20042;-76
2023/11/02 07:47:36;;;;;;;5.80;1.50;;;;;;;8.76;100.00;98187.31;4971019;28;20046;-76
2023/11/02 07:50:03;;;;;;;6.67;2.33;;;;;;;8.84;100.00;98195.03;4953998;28;20924;-77
2023/11/02 07:52:29;;;;;;;3.03;1.33;;;;;;;8.79;100.00;98181.56;4970827;28;20031;-76
2023/11/02 07:54:57;;;;;;;2.58;1.67;;;;;;;8.65;100.00;98169.38;5006322;28;20034;-76
2023/11/02 07:57:22;;;;;;;2.10;1.35;;;;;;;8.73;100.00;98171.75;4971305;28;20078;-76
2023/11/02 07:59:48;;;;;;;5.13;1.85;;;;;;;8.71;100.00;98167.69;4971066;28;20038;-76
2023/11/02 08:02:13;;;;;;;6.63;1.57;;;;;;;8.86;100.00;98174.34;4970626;28;20034;-77
2023/11/02 08:04:38;;;;;;;2.90;1.43;;;;;;;8.82;100.00;98154.53;4970147;28;20510;-76
2023/11/02 08:07:07;;;;;;;3.20;1.10;;;;;;;8.93;100.00;98137.06;4971039;28;20437;-76
2023/11/02 08:09:32;;;;;;;6.82;1.40;;;;;;;8.90;100.00;98120.69;4968100;28;20059;-76
2023/11/02 08:11:58;;;;;;;4.40;1.30;;;;;;;9.00;100.00;98121.84;4968904;28;20031;-76
2023/11/02 08:14:27;;;;;;;3.65;1.25;;;;;;;9.00;100.00;98065.16;4969855;28;20552;-77
2023/11/02 08:16:52;;;;;;;2.40;1.00;;;;;;;9.23;100.00;98072.53;4953420;28;20022;-77
2023/11/02 08:19:17;;;;;;;8.50;1.20;;;;;;;9.22;100.00;98039.75;4967186;28;20046;-76
2023/11/02 08:21:43;;;;;;;1.43;0.93;;;;;;;9.16;100.00;98035.34;4971000;28;20027;-77
2023/11/02 08:24:09;;;;;;;2.73;1.20;;;;;;;9.29;100.00;98021.91;4970164;28;20058;-77
2023/11/02 08:26:36;;;;;;;2.58;0.98;;;;;;;9.24;100.00;98024.38;4966616;28;20035;-77
2023/11/02 08:29:01;;;;;;;2.30;0.80;;;;;;;9.28;100.00;97998.16;4968614;28;20452;-77
2023/11/02 08:31:45;;;;;;;1.45;0.90;;;;;;;9.41;100.00;97986.53;4970849;28;20096;-77
2023/11/02 08:34:29;;;;;;;3.35;1.08;;;;;;;9.38;100.00;97961.16;4970200;28;20100;-76
2023/11/02 08:37:13;;;;;;;5.28;0.93;;;;;;;9.83;100.00;97944.00;4969635;28;20076;-76
2023/11/02 08:39:58;;;;;;;3.08;1.10;;;;;;;10.28;100.00;97836.91;4969802;28;20045;-76
2023/11/02 08:42:42;;;;;;;7.90;1.30;;;;;;;9.99;100.00;97791.44;4970958;28;20049;-76
2023/11/02 08:45:26;;;;;;;3.63;1.20;;;;;;;9.94;100.00;97794.81;4964419;28;20088;-77
2023/11/02 08:48:10;;;;;;;1.23;0.68;;;;;;;9.92;100.00;97806.72;4967852;28;20089;-77
2023/11/02 08:50:54;;;;;;;2.33;1.15;;;;;;;9.82;100.00;97812.63;4968072;28;20077;-77
2023/11/02 08:53:39;;;;;;;1.45;0.70;;;;;;;9.66;100.00;97821.28;4958160;28;20117;-77
2023/11/02 08:56:05;;;;;;;;;;;;;;;9.79;100.00;97825.63;4953989;28;20038;-77
2023/11/02 08:58:31;;;;;;;4.32;0.70;;;;;;;9.96;100.00;97821.22;4947915;28;19917;-76
2023/11/02 09:00:56;;;;;;;4.33;0.83;;;;;;;9.73;100.00;97782.84;4961715;28;20035;-77
2023/11/02 09:03:22;;;;;;;3.85;0.88;;;;;;;9.93;100.00;97797.72;4970388;28;20022;-77
2023/11/02 09:05:47;;;;;;;5.17;1.57;;;;;;;9.87;100.00;97823.41;4970295;28;20031;-81
2023/11/02 09:08:12;;;;;;;1.90;0.87;;;;;;;9.94;100.00;97831.31;4968741;28;20030;-77
2023/11/02 09:10:41;;;;;;;5.17;1.20;;;;;;;9.87;100.00;97819.94;4970152;28;20034;-77
2023/11/02 09:13:06;;;;;;;4.55;1.10;;;;;;;9.90;100.00;97803.47;4968799;28;20105;-76
2023/11/02 09:15:31;;;;;;;2.63;0.93;;;;;;;9.90;100.00;97782.16;4952891;28;20119;-78
2023/11/02 09:17:57;;;;;;;4.93;0.90;;;;;;;9.98;100.00;97763.19;4952431;28;20077;-77
2023/11/02 09:20:23;;;;;;;2.23;0.87;;;;;;;10.03;100.00;97747.31;4964458;28;20026;-77
2023/11/02 09:22:49;;;;;;;4.10;1.45;;;;;;;9.90;100.00;97691.56;4944065;28;20411;-77
2023/11/02 09:25:14;;;;;;;2.00;0.80;;;;;;;9.99;100.00;97700.81;4977560;28;20025;-77
2023/11/02 09:27:39;;;;;;;4.27;0.90;;;;;;;10.04;100.00;97654.81;4964468;28;20498;-76
2023/11/02 09:30:05;;;;;;;3.93;0.93;;;;;;;10.12;100.00;97646.47;4975565;28;20483;-76
2023/11/02 09:32:32;;;;;;;3.47;1.00;;;;;;;10.19;100.00;97678.34;4969855;28;20026;-77
2023/11/02 09:34:57;;;;;;;1.73;0.90;;;;;;;10.10;100.00;97644.03;4969743;28;20049;-77
2023/11/02 09:37:23;;;;;;;4.50;0.80;;;;;;;10.18;100.00;97610.06;4952285;28;20505;-77
2023/11/02 09:39:48;;;;;;;3.65;0.90;;;;;;;10.27;100.00;97621.97;4968210;28;20511;-78
2023/11/02 09:42:16;;;;;;;6.30;0.98;;;;;;;10.33;100.00;97605.06;4945239;28;20115;-77
2023/11/02 09:44:42;;;;;;;5.05;1.83;;;;;;;10.43;100.00;97583.09;4968377;28;20038;-77
2023/11/02 09:47:07;;;;;;;3.85;0.80;;;;;;;10.33;100.00;97546.41;4968261;28;20030;-77
2023/11/02 09:49:34;;;;;;;2.57;0.90;;;;;;;10.40;100.00;97549.72;4968214;28;20406;-77
2023/11/02 09:52:03;;;;;;;2.30;0.80;;;;;;;10.58;100.00;97578.03;4969572;28;20030;-77
2023/11/02 09:54:28;;;;;;;5.35;1.15;;;;;;;10.39;100.00;97518.75;4968243;28;20471;-77
2023/11/02 09:56:56;;;;;;;1.60;0.70;;;;;;;10.48;100.00;97509.31;4968390;28;20061;-77
2023/11/02 09:59:21;;;;;;;6.35;1.65;;;;;;;10.45;100.00;97520.47;4953709;28;20034;-77
2023/11/02 10:01:49;;;;;;;3.57;1.03;;;;;;;10.34;100.00;97500.00;4952155;28;20043;-78
2023/11/02 10:04:14;;;;;;;5.25;0.85;;;;;;;10.33;100.00;97483.22;4968248;28;20266;-77
2023/11/02 10:06:39;;;;;;;4.13;0.93;;;;;;;10.42;100.00;97491.63;4950813;28;20568;-76
2023/11/02 10:09:05;;;;;;;3.77;1.27;;;;;;;10.40;100.00;97468.94;4969037;28;20026;-77
2023/11/02 10:11:31;;;;;;;5.72;1.52;;;;;;;10.46;100.00;97476.75;4967920;28;20042;-77
2023/11/02 10:13:57;;;;;;;3.20;2.05;;;;;;;10.63;100.00;97507.94;4969095;28;20031;-77
2023/11/02 10:16:25;;;;;;;5.47;0.90;;;;;;;10.43;100.00;97490.56;4967709;28;20053;-77
2023/11/02 10:18:51;;;;;;;4.30;0.60;;;;;;;10.41;100.00;97540.66;4951576;28;20018;-78
2023/11/02 10:21:18;;;;;;;2.50;1.02;;;;;;;10.39;100.00;97548.09;4967627;28;20034;-77
2023/11/02 10:23:48;;;;;;;3.70;0.70;;;;;;;10.53;100.00;97591.28;4967825;28;20034;-77
2023/11/02 10:26:14;;;;;;;1.00;0.60;;;;;;;10.32;100.00;97566.94;4967667;28;20023;-77
2023/11/02 10:28:39;;;;;;;1.30;0.88;;;;;;;10.35;100.00;97586.97;4983914;28;20500;-76
2023/11/02 10:31:05;;;;;;;5.13;1.20;;;;;;;10.49;100.00;97568.84;4967605;28;20045;-77
2023/11/02 10:33:32;;;;;;;3.40;0.82;;;;;;;10.47;100.00;97525.59;4967877;28;20335;-77
2023/11/02 10:35:58;;;;;;;4.65;0.95;;;;;;;10.44;100.00;97489.53;4967692;28;20034;-76
2023/11/02 10:38:23;;;;;;;4.85;0.90;;;;;;;10.46;100.00;97503.41;4968820;28;20035;-77
2023/11/02 10:40:50;;;;;;;2.30;1.20;;;;;;;10.52;100.00;97555.81;4967393;28;20039;-78
2023/11/02 10:43:18;;;;;;;3.22;1.38;;;;;;;10.18;100.00;97549.53;4967326;28;20113;-77
2023/11/02 10:45:48;;;;;;;2.78;0.85;;;;;;;10.21;100.00;97677.06;4967599;28;20558;-77
2023/11/02 10:48:16;;;;;;;3.63;0.88;;;;;;;10.29;100.00;97723.91;4964190;28;20031;-78
2023/11/02 10:50:44;;;;;;;4.03;1.02;;;;;;;10.21;100.00;97761.53;4963705;28;20073;-79
2023/11/02 10:53:13;;;;;;;5.82;1.00;;;;;;;9.85;100.00;97777.53;4967466;28;20034;-77
2023/11/02 10:55:40;;;;;;;3.70;1.48;;;;;;;9.94;100.00;97836.63;4969571;28;20052;-77
2023/11/02 10:58:07;;;;;;;5.95;1.23;;;;;;;9.89;100.00;97861.31;4968228;28;20100;-77
2023/11/02 11:00:33;;;;;;;;;;;;;;;9.84;100.00;97863.03;4951808;28;20027;-79
2023/11/02 11:02:59;;;;;;;5.38;0.70;;;;;;;9.73;100.00;97857.44;4983667;28;19910;-78
2023/11/02 11:05:26;;;;;;;3.67;1.48;;;;;;;9.72;100.00;97865.66;4968694;28;20407;-79
2023/11/02 11:08:01;;;;;;;5.72;0.93;;;;;;;9.78;100.00;97898.56;4973658;28;20030;-79
2023/11/02 11:10:32;;;;;;;4.60;1.10;;;;;;;9.73;100.00;97877.94;4969178;28;20054;-78
2023/11/02 11:12:58;;;;;;;4.88;1.23;;;;;;;9.81;100.00;97874.13;4968793;28;20039;-79
2023/11/02 11:15:25;;;;;;;6.32;1.80;;;;;;;9.83;100.00;97882.72;4994148;28;20415;-78
2023/11/02 11:17:52;;;;;;;4.40;1.05;;;;;;;9.81;100.00;97829.69;4968634;28;20039;-79
2023/11/02 11:20:17;;;;;;;5.40;1.40;;;;;;;9.90;100.00;97822.97;4972609;28;20019;-80
2023/11/02 11:22:45;;;;;;;1.48;0.70;;;;;;;9.87;100.00;97793.28;4979270;28;20499;-80
2023/11/02 11:25:11;;;;;;;5.30;1.60;;;;;;;10.03;100.00;97784.63;4974897;28;20038;-79
2023/11/02 11:27:38;;;;;;;5.00;1.23;;;;;;;9.92;100.00;97769.44;4971933;28;20077;-79
2023/11/02 11:30:26;;;;;;;3.60;0.90;;;;;;;9.90;100.00;97756.34;4971039;28;20034;-78
2023/11/02 11:32:51;;;;;;;1.63;0.82;;;;;;;10.06;100.00;97724.69;4970420;28;20027;-78
2023/11/02 11:35:17;;;;;;;5.27;1.97;;;;;;;10.13;100.00;97704.88;4979563;28;20084;-77
2023/11/02 11:37:50;;;;;;;3.63;0.90;;;;;;;10.19;100.00;97663.16;4970863;28;20540;-77
2023/11/02 11:40:19;;;;;;;2.35;1.02;;;;;;;10.28;100.00;97655.59;4947027;28;20035;-76
2023/11/02 11:43:08;;;;;;;5.60;2.33;;;;;;;10.34;100.00;97591.47;4970666;28;20088;-78